Time;durP1;ratioP1;P1;durP2;ratioP2;P2;SDS_P1;SDS_P2;PMS_P1;PMS_P2;Temp;Humidity;BMP_temperature;BMP_pressure;BME280_temperature;BME280_humidity;BME280_pressure;Samples;Min_cycle;Max_cycle;Signal;HPM_P1;HPM_P2
2021/07/20 00:02:01;;;;;;;5.65;2.70;;;;;;;17.24;100.00;101271.53;4932856;29;20330;-75
2021/07/20 00:04:27;;;;;;;4.45;2.60;;;;;;;17.28;100.00;101270.59;4902967;29;20652;-76
2021/07/20 00:06:52;;;;;;;5.15;3.03;;;;;;;17.13;100.00;101270.84;4917140;29;20223;-75
2021/07/20 00:09:18;;;;;;;5.57;2.80;;;;;;;17.12;100.00;101279.38;4917272;29;20184;-74
2021/07/20 00:11:43;;;;;;;3.38;2.63;;;;;;;17.12;100.00;101269.22;4916985;29;20728;-75
2021/07/20 00:14:11;;;;;;;3.97;2.90;;;;;;;16.91;100.00;101280.00;4917549;29;20263;-75
2021/07/20 00:16:37;;;;;;;7.30;3.00;;;;;;;16.96;100.00;101273.31;4898267;29;20610;-74
2021/07/20 00:19:07;;;;;;;4.78;2.88;;;;;;;17.04;100.00;101272.63;4898193;29;20212;-74
2021/07/20 00:21:35;;;;;;;4.80;3.10;;;;;;;17.07;100.00;101276.72;4913535;29;20232;-74
2021/07/20 00:24:06;;;;;;;7.78;3.17;;;;;;;17.14;100.00;101272.47;4918170;29;20290;-74
2021/07/20 00:26:34;;;;;;;5.60;2.90;;;;;;;16.96;100.00;101276.06;4932259;29;20230;-75
2021/07/20 00:29:05;;;;;;;5.45;2.92;;;;;;;17.17;100.00;101271.09;4917586;29;20192;-75
2021/07/20 00:31:32;;;;;;;6.07;2.90;;;;;;;16.97;100.00;101269.44;4932643;29;20227;-75
2021/07/20 00:33:58;;;;;;;5.93;2.97;;;;;;;17.13;100.00;101265.34;4902140;29;20207;-74
2021/07/20 00:36:26;;;;;;;3.22;2.55;;;;;;;17.00;100.00;101271.59;4916715;29;20625;-74
2021/07/20 00:38:54;;;;;;;5.22;3.05;;;;;;;17.08;100.00;101272.84;4916339;29;20302;-74
2021/07/20 00:41:25;;;;;;;6.20;2.92;;;;;;;16.90;100.00;101268.19;4916872;29;20238;-75
2021/07/20 00:43:52;;;;;;;3.60;2.50;;;;;;;16.92;100.00;101265.97;4917905;29;20203;-74
2021/07/20 00:46:20;;;;;;;6.47;2.97;;;;;;;16.95;100.00;101268.13;4916504;29;20606;-74
2021/07/20 00:48:47;;;;;;;5.03;2.83;;;;;;;16.90;100.00;101265.44;4933177;29;20550;-74
2021/07/20 00:51:25;;;;;;;3.75;2.95;;;;;;;16.86;100.00;101263.63;4918115;29;20233;-74
2021/07/20 00:53:56;;;;;;;4.38;3.17;;;;;;;16.70;100.00;101278.66;4902184;29;20727;-75
2021/07/20 00:56:25;;;;;;;4.40;2.90;;;;;;;16.79;100.00;101272.22;4932031;29;20314;-75
2021/07/20 00:58:51;;;;;;;3.92;2.60;;;;;;;16.96;100.00;101269.78;4916678;29;20222;-75
2021/07/20 01:01:17;;;;;;;5.00;2.67;;;;;;;16.95;100.00;101273.63;4916607;29;20298;-75
2021/07/20 01:03:51;;;;;;;4.80;3.05;;;;;;;16.59;100.00;101269.78;4917509;29;20214;-75
2021/07/20 01:06:19;;;;;;;4.68;2.75;;;;;;;16.57;100.00;101277.50;4924019;28;20227;-75
2021/07/20 01:08:48;;;;;;;7.43;3.03;;;;;;;16.89;100.00;101263.03;4932554;29;20199;-74
2021/07/20 01:11:20;;;;;;;5.18;2.80;;;;;;;16.89;100.00;101263.03;4911021;29;20291;-74
2021/07/20 01:13:51;;;;;;;5.95;3.30;;;;;;;16.79;100.00;101263.97;4920977;29;20715;-74
2021/07/20 01:16:21;;;;;;;5.63;2.90;;;;;;;16.77;100.00;101265.41;4911812;29;20260;-74
2021/07/20 01:18:50;;;;;;;4.80;2.88;;;;;;;16.60;100.00;101263.19;4920321;29;20223;-75
2021/07/20 01:21:17;;;;;;;4.70;3.10;;;;;;;16.77;100.00;101259.91;4920568;29;20220;-74
2021/07/20 01:23:45;;;;;;;4.88;3.17;;;;;;;16.75;100.00;101264.88;4920717;29;20210;-74
2021/07/20 01:26:18;;;;;;;5.32;2.72;;;;;;;16.77;100.00;101266.19;4921094;29;20730;-72
2021/07/20 01:28:48;;;;;;;3.75;3.20;;;;;;;16.51;100.00;101263.34;4906076;29;20180;-75
2021/07/20 01:31:20;;;;;;;4.50;2.80;;;;;;;16.50;100.00;101254.31;4920412;29;20242;-73
2021/07/20 01:33:53;;;;;;;6.18;3.20;;;;;;;16.65;100.00;101268.59;4921820;29;20241;-73
2021/07/20 01:36:25;;;;;;;4.68;2.67;;;;;;;16.61;100.00;101261.25;4920430;29;20243;-74
2021/07/20 01:38:53;;;;;;;5.75;2.80;;;;;;;16.81;100.00;101270.00;4920647;29;20302;-73
2021/07/20 01:41:27;;;;;;;3.42;3.13;;;;;;;16.87;100.00;101260.56;4905944;29;20298;-76
2021/07/20 01:44:03;;;;;;;5.38;3.40;;;;;;;16.84;100.00;101258.41;4936297;29;20290;-74
2021/07/20 01:46:32;;;;;;;6.13;3.20;;;;;;;16.56;100.00;101262.16;4921058;29;20219;-75
2021/07/20 01:48:59;;;;;;;5.15;3.40;;;;;;;16.66;100.00;101256.50;4919500;29;20182;-73
2021/07/20 01:51:26;;;;;;;4.30;3.10;;;;;;;16.72;100.00;101249.00;4906614;29;20219;-73
2021/07/20 01:53:56;;;;;;;6.55;3.47;;;;;;;16.73;100.00;101251.44;4920209;29;20204;-74
2021/07/20 01:56:27;;;;;;;5.88;3.25;;;;;;;16.73;100.00;101248.72;4919272;29;20219;-73
2021/07/20 01:58:52;;;;;;;6.75;3.05;;;;;;;16.64;100.00;101245.00;4935535;29;20241;-74
2021/07/20 02:01:42;;;;;;;7.70;3.45;;;;;;;16.70;100.00;101252.06;4921123;29;20237;-74
2021/07/20 02:04:24;;;;;;;5.38;3.60;;;;;;;16.46;100.00;101252.44;4908822;29;20213;-77
2021/07/20 02:09:35;;;;;;;4.65;3.25;;;;;;;16.63;100.00;101259.03;4937876;29;20195;-75
2021/07/20 02:12:12;;;;;;;5.47;3.55;;;;;;;16.51;100.00;101250.44;4930076;29;20330;-72
2021/07/20 02:14:56;;;;;;;4.72;3.60;;;;;;;16.45;100.00;101257.09;4916826;29;20945;-73
2021/07/20 02:17:41;;;;;;;5.38;3.40;;;;;;;16.30;100.00;101259.22;4923634;29;20227;-74
2021/07/20 02:20:12;;;;;;;7.45;3.47;;;;;;;16.31;100.00;101260.88;4903844;29;20250;-73
2021/07/20 02:22:57;;;;;;;5.78;3.30;;;;;;;16.27;100.00;101259.84;4916705;29;20698;-74
2021/07/20 02:25:27;;;;;;;6.55;3.60;;;;;;;16.16;100.00;101258.31;4934733;29;20235;-75
2021/07/20 02:27:56;;;;;;;5.45;3.88;;;;;;;16.12;100.00;101261.94;4915093;29;20179;-75
2021/07/20 02:30:42;;;;;;;7.93;3.83;;;;;;;16.19;100.00;101255.81;4921688;29;20737;-73
2021/07/20 02:33:11;;;;;;;6.40;3.58;;;;;;;16.24;100.00;101260.41;4919873;29;20228;-76
2021/07/20 02:35:38;;;;;;;6.72;3.45;;;;;;;16.21;100.00;101267.31;4919197;29;20223;-76
2021/07/20 02:38:21;;;;;;;6.60;3.80;;;;;;;16.28;100.00;101262.28;4922934;29;20884;-73
2021/07/20 02:40:48;;;;;;;5.80;3.80;;;;;;;16.05;100.00;101261.47;4919210;29;20243;-73
2021/07/20 02:43:16;;;;;;;5.97;3.38;;;;;;;16.06;100.00;101266.66;4919424;29;20239;-74
2021/07/20 02:45:46;;;;;;;5.45;3.78;;;;;;;16.04;100.00;101271.59;4919590;29;20219;-74
2021/07/20 02:48:12;;;;;;;6.45;3.55;;;;;;;16.05;100.00;101267.75;4918579;29;20190;-74
2021/07/20 02:50:40;;;;;;;4.85;3.90;;;;;;;16.16;100.00;101269.25;4903404;29;20224;-74
2021/07/20 02:53:20;;;;;;;5.90;3.70;;;;;;;16.17;100.00;101263.50;4916398;29;20213;-74
2021/07/20 02:55:58;;;;;;;6.63;3.83;;;;;;;16.25;100.00;101273.03;4920104;29;20290;-73
2021/07/20 02:58:31;;;;;;;5.35;3.60;;;;;;;16.21;100.00;101269.25;4909967;29;20302;-73
2021/07/20 03:00:57;;;;;;;7.47;3.75;;;;;;;16.30;100.00;101264.72;4902761;29;20215;-75
2021/07/20 03:03:23;;;;;;;5.75;3.97;;;;;;;16.33;100.00;101273.16;4919072;29;20210;-75
2021/07/20 03:05:52;;;;;;;6.93;3.60;;;;;;;16.39;100.00;101268.44;4918393;29;20972;-74
2021/07/20 03:08:29;;;;;;;6.65;3.72;;;;;;;16.34;100.00;101268.53;4904817;29;20720;-73
2021/07/20 03:11:09;;;;;;;6.93;4.28;;;;;;;16.33;100.00;101275.09;4919994;29;20252;-73
2021/07/20 03:13:43;;;;;;;4.93;3.70;;;;;;;16.37;100.00;101270.66;4916984;29;20260;-73
2021/07/20 03:16:12;;;;;;;5.50;3.55;;;;;;;16.48;100.00;101277.63;4918502;29;20608;-75
2021/07/20 03:18:39;;;;;;;5.30;3.90;;;;;;;16.47;100.00;101270.53;4918248;29;20212;-74
2021/07/20 03:21:07;;;;;;;7.85;4.10;;;;;;;16.33;100.00;101275.09;4903156;29;20728;-74
2021/07/20 03:23:34;;;;;;;5.47;4.32;;;;;;;16.44;100.00;101282.09;4911551;29;20685;-75
2021/07/20 03:26:02;;;;;;;4.13;3.50;;;;;;;16.37;100.00;101281.63;4934667;29;20216;-74
2021/07/20 03:28:32;;;;;;;5.45;3.72;;;;;;;16.11;100.00;101280.28;4933777;29;20180;-74
2021/07/20 03:31:01;;;;;;;6.70;4.07;;;;;;;16.23;100.00;101273.31;4903436;29;21009;-73
2021/07/20 03:33:26;;;;;;;5.60;3.63;;;;;;;16.45;100.00;101276.31;4902706;29;20208;-74
2021/07/20 03:36:00;;;;;;;6.88;4.82;;;;;;;16.51;100.00;101277.84;4919862;29;20247;-73
2021/07/20 03:38:28;;;;;;;6.00;3.90;;;;;;;16.47;100.00;101287.78;4940126;29;20219;-73
2021/07/20 03:41:02;;;;;;;6.28;4.05;;;;;;;16.46;100.00;101277.13;4919078;29;20796;-74
2021/07/20 03:43:30;;;;;;;7.07;3.95;;;;;;;16.48;100.00;101285.84;4934445;29;20736;-75
2021/07/20 03:46:02;;;;;;;5.82;3.53;;;;;;;16.48;100.00;101283.13;4917661;29;20223;-75
2021/07/20 03:48:30;;;;;;;4.85;3.60;;;;;;;16.58;100.00;101279.13;4933417;29;20211;-74
2021/07/20 03:51:10;;;;;;;5.38;3.97;;;;;;;16.58;100.00;101290.09;4925196;29;20359;-74
2021/07/20 03:53:36;;;;;;;4.78;3.40;;;;;;;16.61;100.00;101284.03;4942114;29;20690;-74
2021/07/20 03:56:04;;;;;;;6.72;4.40;;;;;;;16.49;100.00;101295.72;4918760;29;20222;-74
2021/07/20 03:58:39;;;;;;;7.47;4.43;;;;;;;16.45;100.00;101297.44;4905446;29;20584;-74
2021/07/20 04:01:07;;;;;;;5.97;4.00;;;;;;;16.33;100.00;101291.56;4901750;29;20235;-73
2021/07/20 04:03:32;;;;;;;7.32;3.90;;;;;;;16.36;100.00;101293.72;4904746;29;20801;-74
2021/07/20 04:06:21;;;;;;;5.05;3.97;;;;;;;16.45;100.00;101289.22;4908217;29;20223;-74
2021/07/20 04:09:12;;;;;;;5.43;4.10;;;;;;;16.59;100.00;101297.22;4927754;29;20199;-76
2021/07/20 04:12:16;;;;;;;5.95;3.42;;;;;;;16.56;100.00;101285.22;4919416;29;20222;-74
2021/07/20 04:15:00;;;;;;;4.55;3.58;;;;;;;16.62;100.00;101293.06;4902867;29;20246;-74
2021/07/20 04:17:32;;;;;;;6.50;4.18;;;;;;;16.83;100.00;101288.91;4901685;29;20291;-74
2021/07/20 04:19:58;;;;;;;5.07;3.80;;;;;;;16.37;100.00;101292.59;4916646;29;20198;-75
2021/07/20 04:22:30;;;;;;;6.25;3.47;;;;;;;16.63;100.00;101281.78;4917558;29;20232;-75
2021/07/20 04:24:57;;;;;;;6.18;3.60;;;;;;;16.65;100.00;101293.28;4917043;29;20183;-75
2021/07/20 04:27:32;;;;;;;5.88;4.20;;;;;;;16.77;100.00;101299.13;4903861;29;20847;-74
2021/07/20 04:29:58;;;;;;;6.85;3.97;;;;;;;16.79;100.00;101287.88;4911276;29;20187;-75
2021/07/20 04:32:26;;;;;;;6.35;3.28;;;;;;;16.84;100.00;101293.28;4902968;29;20281;-74
2021/07/20 04:34:54;;;;;;;7.63;3.92;;;;;;;16.85;100.00;101301.22;4907327;29;20188;-74
2021/07/20 04:37:23;;;;;;;5.70;3.65;;;;;;;17.02;100.00;101291.34;4898044;29;20303;-74
2021/07/20 04:39:56;;;;;;;7.75;3.70;;;;;;;17.02;100.00;101296.00;4910432;29;20250;-74
2021/07/20 04:42:27;;;;;;;7.75;3.83;;;;;;;17.17;100.00;101298.53;4917344;29;20254;-76
2021/07/20 04:44:52;;;;;;;7.47;4.10;;;;;;;17.09;100.00;101301.94;4901665;29;20192;-74
2021/07/20 04:47:26;;;;;;;5.78;3.65;;;;;;;17.15;100.00;101295.25;4946466;29;20239;-74
2021/07/20 04:50:05;;;;;;;7.63;3.88;;;;;;;17.16;100.00;101300.50;4909570;29;20186;-74
2021/07/20 04:52:36;;;;;;;7.13;4.03;;;;;;;17.36;100.00;101300.97;4933349;29;20282;-73
2021/07/20 04:55:04;;;;;;;5.60;3.75;;;;;;;16.93;100.00;101307.97;4914427;29;20190;-75
2021/07/20 04:57:36;;;;;;;5.07;3.40;;;;;;;16.92;100.00;101312.63;4908333;29;20737;-74
2021/07/20 05:00:14;;;;;;;4.88;3.60;;;;;;;16.97;100.00;101318.03;4910931;29;20186;-73
2021/07/20 05:02:48;;;;;;;8.23;3.88;;;;;;;16.89;100.00;101315.97;4917664;29;20231;-75
2021/07/20 05:05:16;;;;;;;6.50;3.20;;;;;;;17.15;100.00;101317.22;4906115;29;20184;-72
2021/07/20 05:07:46;;;;;;;6.65;3.75;;;;;;;17.35;100.00;101324.03;4899254;29;20208;-76
2021/07/20 05:10:13;;;;;;;5.75;3.72;;;;;;;17.32;100.00;101312.03;4941523;29;20330;-75
2021/07/20 05:13:00;;;;;;;6.30;3.70;;;;;;;17.60;100.00;101309.03;4919585;29;20271;-71
2021/07/20 05:15:31;;;;;;;6.75;3.70;;;;;;;17.27;100.00;101304.69;4901607;28;20231;-74
2021/07/20 05:18:00;;;;;;;6.78;3.72;;;;;;;17.23;100.00;101313.81;4917548;29;20212;-75
2021/07/20 05:20:27;;;;;;;7.43;3.80;;;;;;;17.33;100.00;101319.16;4907090;29;20302;-76
2021/07/20 05:23:05;;;;;;;14.05;12.55;;;;;;;17.22;100.00;101323.19;4920573;29;20701;-73
2021/07/20 05:25:32;;;;;;;28.88;24.30;;;;;;;17.02;100.00;101318.78;4916652;29;20958;-73
2021/07/20 05:27:58;;;;;;;12.68;9.20;;;;;;;17.24;100.00;101315.47;4917547;29;20188;-75
2021/07/20 05:30:29;;;;;;;5.97;3.60;;;;;;;17.43;100.00;101315.09;4905869;29;20231;-76
2021/07/20 05:32:55;;;;;;;5.32;3.67;;;;;;;17.65;100.00;101312.50;4917721;29;20218;-74
2021/07/20 05:35:32;;;;;;;6.03;3.65;;;;;;;17.72;100.00;101308.25;4910266;28;20724;-75
2021/07/20 05:37:57;;;;;;;6.97;4.10;;;;;;;17.69;100.00;101315.47;4900958;29;20220;-74
2021/07/20 05:40:23;;;;;;;10.60;4.43;;;;;;;17.73;100.00;101320.06;4919067;29;20227;-74
2021/07/20 05:42:50;;;;;;;5.60;3.78;;;;;;;17.73;100.00;101315.38;4900131;29;20218;-75
2021/07/20 05:45:34;;;;;;;8.43;3.88;;;;;;;17.61;100.00;101318.91;4903507;29;20216;-75
2021/07/20 05:48:03;;;;;;;6.93;3.50;;;;;;;17.41;100.00;101322.03;4916529;29;20184;-75
2021/07/20 05:50:47;;;;;;;5.72;3.30;;;;;;;17.75;100.00;101317.84;4919257;29;20266;-75
2021/07/20 05:53:29;;;;;;;4.03;3.22;;;;;;;18.04;100.00;101321.94;4933906;29;20200;-76
2021/07/20 05:56:09;;;;;;;5.70;3.28;;;;;;;17.93;100.00;101320.50;4926198;29;20238;-76
2021/07/20 05:58:40;;;;;;;5.95;3.20;;;;;;;18.12;100.00;101316.56;4910800;29;20220;-75
2021/07/20 06:01:10;;;;;;;5.93;3.03;;;;;;;17.68;100.00;101322.09;4919173;29;20230;-76
2021/07/20 06:03:40;;;;;;;5.07;3.42;;;;;;;17.55;100.00;101328.38;4927379;29;20208;-76
2021/07/20 06:06:05;;;;;;;6.70;4.38;;;;;;;17.32;100.00;101323.00;4920657;29;20238;-74
2021/07/20 06:08:36;;;;;;;6.15;3.25;;;;;;;17.65;100.00;101323.50;4943711;29;20191;-76
2021/07/20 06:11:05;;;;;;;5.25;3.25;;;;;;;18.02;100.00;101326.09;4926008;29;20287;-75
2021/07/20 06:13:38;;;;;;;5.72;3.40;;;;;;;17.95;100.00;101331.22;4953687;28;20207;-75
2021/07/20 06:16:04;;;;;;;4.28;3.25;;;;;;;17.96;100.00;101332.81;4911094;29;20227;-76
2021/07/20 06:18:34;;;;;;;5.30;3.50;;;;;;;17.81;100.00;101325.66;4937109;29;20780;-75
2021/07/20 06:21:07;;;;;;;5.18;3.45;;;;;;;17.89;100.00;101329.66;4921755;29;20241;-75
2021/07/20 06:23:39;;;;;;;3.63;3.25;;;;;;;18.27;100.00;101327.25;4923125;29;20208;-75
2021/07/20 06:26:09;;;;;;;6.90;3.20;;;;;;;18.51;100.00;101325.94;4922079;29;20230;-75
2021/07/20 06:28:37;;;;;;;5.03;3.25;;;;;;;18.31;100.00;101322.75;4921568;29;20251;-76
2021/07/20 06:31:03;;;;;;;5.32;3.40;;;;;;;18.69;100.00;101326.91;4936579;29;20227;-76
2021/07/20 06:33:33;;;;;;;6.65;3.85;;;;;;;18.48;100.00;101328.47;4920850;29;20212;-76
2021/07/20 06:36:01;;;;;;;8.05;3.30;;;;;;;18.82;99.72;101331.56;4935268;29;20812;-76
2021/07/20 06:38:32;;;;;;;6.18;3.35;;;;;;;19.01;99.17;101330.31;4935234;29;20307;-76
2021/07/20 06:41:00;;;;;;;5.57;3.38;;;;;;;18.89;98.49;101330.81;4935118;29;20220;-76
2021/07/20 06:43:25;;;;;;;4.97;3.25;;;;;;;18.72;97.36;101334.56;4919388;29;20213;-76
2021/07/20 06:45:54;;;;;;;5.25;2.88;;;;;;;18.90;97.21;101331.66;4919700;29;20708;-75
2021/07/20 06:48:26;;;;;;;6.88;3.47;;;;;;;18.87;96.62;101335.03;4919661;29;20215;-75
2021/07/20 06:50:54;;;;;;;4.20;3.30;;;;;;;18.31;100.00;101336.53;4913208;29;20631;-75
2021/07/20 06:53:22;;;;;;;5.25;2.90;;;;;;;18.45;100.00;101333.78;4903870;29;20306;-75
2021/07/20 06:55:52;;;;;;;6.43;3.88;;;;;;;18.74;100.00;101337.81;4935091;29;20307;-74
2021/07/20 06:58:23;;;;;;;4.65;3.28;;;;;;;18.57;99.69;101337.63;4919607;29;20244;-75
2021/07/20 07:00:55;;;;;;;6.35;3.05;;;;;;;18.73;98.81;101336.19;4919565;29;20246;-75
2021/07/20 07:03:30;;;;;;;5.55;3.13;;;;;;;18.54;99.17;101338.25;4919628;29;20204;-75
2021/07/20 07:06:01;;;;;;;5.45;2.95;;;;;;;18.19;99.57;101352.72;4919992;29;20219;-76
2021/07/20 07:08:26;;;;;;;5.90;3.08;;;;;;;18.00;100.00;101356.66;4919217;29;20183;-75
2021/07/20 07:10:54;;;;;;;5.05;2.80;;;;;;;18.36;99.86;101347.44;4917842;29;20219;-75
2021/07/20 07:13:22;;;;;;;6.97;2.80;;;;;;;18.40;100.00;101358.63;4934781;29;20223;-74
2021/07/20 07:15:48;;;;;;;5.97;2.97;;;;;;;17.91;100.00;101350.25;4934154;29;20608;-75
2021/07/20 07:18:14;;;;;;;5.82;2.88;;;;;;;17.88;100.00;101352.78;4918520;29;20207;-77
2021/07/20 07:20:40;;;;;;;3.20;2.20;;;;;;;17.93;100.00;101358.16;4934312;29;20564;-75
2021/07/20 07:23:08;;;;;;;3.83;2.03;;;;;;;17.75;100.00;101367.31;4919168;29;20215;-74
2021/07/20 07:25:33;;;;;;;4.35;2.65;;;;;;;18.11;100.00;101366.38;4918717;29;20230;-76
2021/07/20 07:28:10;;;;;;;5.25;2.58;;;;;;;17.95;100.00;101373.25;4913239;29;20191;-77
2021/07/20 07:30:36;;;;;;;4.85;2.58;;;;;;;18.05;100.00;101370.31;4919141;29;20215;-74
2021/07/20 07:33:01;;;;;;;7.30;2.45;;;;;;;17.55;100.00;101367.66;4918691;29;20682;-75
2021/07/20 07:35:34;;;;;;;3.50;2.33;;;;;;;17.60;100.00;101373.06;4902500;29;20223;-76
2021/07/20 07:38:02;;;;;;;4.82;2.70;;;;;;;17.73;100.00;101375.03;4919678;29;20230;-75
2021/07/20 07:40:27;;;;;;;4.93;2.70;;;;;;;17.52;100.00;101368.25;4935393;29;20254;-74
2021/07/20 07:42:53;;;;;;;4.40;2.40;;;;;;;18.06;100.00;101371.13;4918397;29;20740;-76
2021/07/20 07:45:19;;;;;;;4.43;2.47;;;;;;;18.06;100.00;101368.38;4933771;28;20218;-77
2021/07/20 07:47:45;;;;;;;5.15;2.88;;;;;;;18.03;100.00;101374.50;4918622;29;20207;-75
2021/07/20 07:50:11;;;;;;;4.97;2.92;;;;;;;18.14;100.00;101371.28;4917285;29;20184;-75
2021/07/20 07:52:39;;;;;;;5.32;2.90;;;;;;;18.59;100.00;101368.44;4918351;29;20204;-74
2021/07/20 07:55:06;;;;;;;4.40;2.63;;;;;;;18.78;99.33;101369.09;4918577;29;20183;-75
2021/07/20 07:57:36;;;;;;;4.32;2.38;;;;;;;18.88;95.65;101368.88;4918062;29;20318;-75
2021/07/20 08:00:08;;;;;;;6.45;2.72;;;;;;;18.52;96.93;101373.53;4919102;29;20184;-74
2021/07/20 08:02:40;;;;;;;3.90;2.50;;;;;;;18.59;97.41;101379.44;4906877;29;20218;-75
2021/07/20 08:05:06;;;;;;;4.88;2.58;;;;;;;19.01;93.84;101377.97;4918167;29;20837;-75
2021/07/20 08:07:39;;;;;;;4.25;2.65;;;;;;;19.04;94.72;101377.31;4917430;29;20560;-76
2021/07/20 08:10:07;;;;;;;4.53;2.30;;;;;;;19.43;92.71;101374.72;4933061;29;20198;-75
2021/07/20 08:12:35;;;;;;;3.80;2.28;;;;;;;19.80;91.06;101376.00;4903138;29;20342;-74
2021/07/20 08:15:06;;;;;;;5.43;2.50;;;;;;;20.20;89.43;101375.75;4934316;29;20198;-75
2021/07/20 08:17:31;;;;;;;6.07;2.17;;;;;;;19.90;86.42;101372.97;4917427;29;20234;-74
2021/07/20 08:19:59;;;;;;;2.30;2.10;;;;;;;19.88;86.56;101371.69;4917627;29;20419;-76
2021/07/20 08:22:30;;;;;;;3.70;2.33;;;;;;;19.87;86.69;101370.88;4917818;29;20705;-73
2021/07/20 08:25:02;;;;;;;2.63;2.20;;;;;;;20.13;86.20;101371.81;4918447;29;20594;-76
2021/07/20 08:27:51;;;;;;;5.57;2.20;;;;;;;20.22;82.50;101373.50;4917349;29;20893;-75
2021/07/20 08:30:18;;;;;;;5.93;2.50;;;;;;;20.50;80.60;101363.84;4917477;29;20190;-75
2021/07/20 08:32:56;;;;;;;4.13;2.53;;;;;;;20.33;80.54;101376.75;4903040;29;20199;-73
2021/07/20 08:35:26;;;;;;;3.95;2.25;;;;;;;20.75;78.94;101371.41;4901285;29;20187;-74
2021/07/20 08:37:55;;;;;;;5.82;2.53;;;;;;;20.79;78.76;101366.84;4917422;29;20207;-75
2021/07/20 08:40:26;;;;;;;5.18;2.40;;;;;;;20.92;77.05;101381.34;4932509;29;20242;-74
2021/07/20 08:43:21;;;;;;;4.85;2.38;;;;;;;20.83;73.01;101368.66;4932870;29;20257;-74
2021/07/20 08:46:06;;;;;;;3.78;2.40;;;;;;;20.97;76.85;101374.84;4912637;29;20227;-75
2021/07/20 08:48:40;;;;;;;5.07;2.65;;;;;;;21.00;74.30;101379.75;4918112;29;20270;-74
2021/07/20 08:51:08;;;;;;;3.40;2.33;;;;;;;21.30;74.35;101374.91;4917232;29;20220;-74
2021/07/20 08:53:41;;;;;;;4.72;2.60;;;;;;;20.96;74.52;101373.25;4917670;29;20207;-76
2021/07/20 08:56:06;;;;;;;3.22;2.15;;;;;;;20.23;77.04;101374.28;4917122;29;20234;-76
2021/07/20 08:58:41;;;;;;;4.85;2.55;;;;;;;19.94;78.91;101376.72;4916695;29;20223;-75
2021/07/20 09:01:12;;;;;;;4.20;2.50;;;;;;;20.47;77.26;101381.88;4933865;28;20869;-74
2021/07/20 09:04:05;;;;;;;5.85;2.55;;;;;;;19.96;77.91;101385.50;4904881;29;20254;-77
2021/07/20 09:06:45;;;;;;;4.30;2.30;;;;;;;20.37;78.94;101375.00;4926334;29;20231;-75
2021/07/20 09:09:21;;;;;;;2.80;2.50;;;;;;;20.65;78.12;101383.56;4941736;29;20194;-74
2021/07/20 09:11:57;;;;;;;3.80;2.30;;;;;;;20.65;77.46;101380.81;4916792;29;20600;-74
2021/07/20 09:14:27;;;;;;;5.72;2.50;;;;;;;20.13;75.12;101380.91;4932858;29;20242;-75
2021/07/20 09:17:02;;;;;;;3.47;2.65;;;;;;;20.15;76.00;101388.88;4932416;29;20227;-75
2021/07/20 09:19:39;;;;;;;3.42;2.30;;;;;;;20.02;77.93;101392.53;4902011;29;20211;-75
2021/07/20 09:22:14;;;;;;;5.20;2.45;;;;;;;20.41;76.65;101387.03;4901742;29;20337;-75
2021/07/20 09:25:03;;;;;;;3.38;2.60;;;;;;;20.09;76.41;101390.13;4910160;29;20222;-76
2021/07/20 09:27:45;;;;;;;3.20;2.42;;;;;;;20.44;75.71;101382.50;4931567;29;20247;-76
2021/07/20 09:30:19;;;;;;;4.95;2.30;;;;;;;20.60;73.21;101380.09;4920335;29;20200;-76
2021/07/20 09:33:10;;;;;;;4.95;2.55;;;;;;;20.21;73.07;101387.59;4917658;29;20589;-77
2021/07/20 09:36:02;;;;;;;3.63;2.67;;;;;;;20.45;72.88;101386.06;4937356;29;20348;-76
2021/07/20 09:38:47;;;;;;;5.85;3.03;;;;;;;20.43;73.96;101380.06;4937460;29;20275;-77
2021/07/20 09:41:16;;;;;;;6.18;3.33;;;;;;;19.92;75.52;101394.75;4936527;29;20245;-76
2021/07/20 09:43:45;;;;;;;3.42;2.88;;;;;;;19.86;76.78;101391.31;4937717;29;20266;-78
2021/07/20 09:46:20;;;;;;;5.03;2.75;;;;;;;19.73;77.58;101386.66;4936123;29;20278;-78
2021/07/20 09:48:55;;;;;;;7.00;2.75;;;;;;;19.56;79.88;101393.16;4905268;29;20187;-75
2021/07/20 09:51:47;;;;;;;4.80;2.90;;;;;;;20.09;79.39;101384.59;4920447;29;20227;-76
2021/07/20 09:54:25;;;;;;;4.63;3.10;;;;;;;19.97;74.11;101398.19;4889733;29;20212;-77
2021/07/20 09:57:12;;;;;;;3.63;2.85;;;;;;;20.02;71.64;101389.78;4935736;29;20310;-75
2021/07/20 10:00:07;;;;;;;6.55;3.30;;;;;;;20.11;70.29;101379.59;4935651;29;20323;-76
2021/07/20 10:02:44;;;;;;;3.88;3.33;;;;;;;20.66;65.37;101382.44;4935788;29;20227;-73
2021/07/20 10:05:32;;;;;;;4.78;3.78;;;;;;;21.08;64.32;101381.69;4935305;29;20665;-76
2021/07/20 10:08:03;;;;;;;4.15;3.38;;;;;;;21.52;61.95;101372.00;4935759;29;20196;-75
2021/07/20 10:10:37;;;;;;;4.82;3.40;;;;;;;21.31;63.39;101382.03;4920042;29;20227;-75
2021/07/20 10:13:10;;;;;;;5.10;3.72;;;;;;;22.09;61.27;101365.84;4937022;29;20743;-75
2021/07/20 10:16:02;;;;;;;3.95;3.20;;;;;;;21.65;64.08;101376.53;4919803;29;20224;-76
2021/07/20 10:18:56;;;;;;;4.40;3.10;;;;;;;21.37;65.24;101374.38;4937821;29;20776;-76
2021/07/20 10:21:23;;;;;;;5.25;3.38;;;;;;;21.33;60.19;101373.41;4926420;29;20255;-75
2021/07/20 10:23:58;;;;;;;4.72;3.33;;;;;;;21.51;61.65;101364.81;4920071;29;20211;-76
2021/07/20 10:26:48;;;;;;;3.70;3.28;;;;;;;21.08;61.84;101377.00;4935206;29;20314;-75
2021/07/20 10:29:28;;;;;;;4.35;3.10;;;;;;;21.28;56.76;101370.81;4929407;29;20196;-76
2021/07/20 10:32:12;;;;;;;3.83;3.42;;;;;;;21.00;60.25;101374.22;4916913;29;20231;-75
2021/07/20 10:34:40;;;;;;;5.25;3.65;;;;;;;20.89;59.28;101373.69;4920125;29;20196;-75
2021/07/20 10:37:12;;;;;;;3.97;2.90;;;;;;;20.79;56.61;101367.69;4919602;29;20250;-74
2021/07/20 10:39:41;;;;;;;4.10;3.30;;;;;;;21.15;56.02;101359.91;4919952;29;20215;-74
2021/07/20 10:42:35;;;;;;;4.47;3.40;;;;;;;21.47;57.66;101365.81;4934978;29;20727;-73
2021/07/20 10:45:11;;;;;;;4.57;3.47;;;;;;;21.81;52.56;101366.56;4919738;29;20719;-74
2021/07/20 10:48:12;;;;;;;11.80;10.55;;;;;;;22.03;52.04;101356.91;4916936;29;20586;-74
2021/07/20 10:51:03;;;;;;;5.00;4.10;;;;;;;22.49;51.93;101351.34;4903342;29;20587;-77
2021/07/20 10:53:47;;;;;;;5.47;3.35;;;;;;;22.04;52.23;101357.72;4940293;28;20595;-75
2021/07/20 10:56:28;;;;;;;4.15;3.28;;;;;;;21.55;51.53;101364.97;4934637;29;20315;-76
2021/07/20 10:59:19;;;;;;;3.55;3.10;;;;;;;21.07;54.53;101364.31;4900194;29;20250;-76
2021/07/20 11:01:56;;;;;;;4.50;3.63;;;;;;;21.04;56.12;101364.13;4925904;29;20219;-75
2021/07/20 11:04:46;;;;;;;3.80;3.50;;;;;;;20.85;56.84;101367.19;4935008;29;20980;-76
2021/07/20 11:07:14;;;;;;;4.10;3.63;;;;;;;21.13;57.97;101367.72;4935306;29;20231;-75
2021/07/20 11:09:40;;;;;;;4.35;3.70;;;;;;;21.30;56.61;101365.78;4919081;29;20230;-79
2021/07/20 11:12:06;;;;;;;4.95;3.50;;;;;;;21.15;57.51;101362.69;4919057;29;20219;-76
2021/07/20 11:14:46;;;;;;;4.00;3.60;;;;;;;21.09;56.65;101366.75;4935502;29;20224;-76
2021/07/20 11:17:12;;;;;;;4.15;3.63;;;;;;;21.01;58.12;101364.81;4916813;29;20901;-76
2021/07/20 11:19:40;;;;;;;4.70;3.30;;;;;;;20.84;59.28;101364.75;4920485;29;20214;-77
2021/07/20 11:22:05;;;;;;;4.63;3.08;;;;;;;21.16;59.05;101367.09;4919599;29;20223;-76
2021/07/20 11:24:33;;;;;;;4.53;3.53;;;;;;;21.53;58.25;101351.47;4919608;29;20559;-76
2021/07/20 11:27:02;;;;;;;6.95;4.10;;;;;;;21.97;56.80;101359.38;4915799;29;20227;-77
2021/07/20 11:29:29;;;;;;;5.07;3.78;;;;;;;21.47;55.96;101369.38;4919306;29;20637;-78
2021/07/20 11:31:56;;;;;;;4.65;3.65;;;;;;;21.69;55.69;101358.13;4919888;29;20216;-78
2021/07/20 11:34:38;;;;;;;4.50;3.95;;;;;;;22.04;55.34;101352.97;4921163;29;20219;-77
2021/07/20 11:37:07;;;;;;;4.07;3.63;;;;;;;22.51;51.78;101338.00;4920501;29;20225;-78
2021/07/20 11:39:36;;;;;;;4.38;3.63;;;;;;;22.51;52.00;101349.06;4905117;29;20215;-77
2021/07/20 11:42:13;;;;;;;3.70;3.40;;;;;;;23.06;51.52;101359.66;4934104;29;20220;-77
2021/07/20 11:44:56;;;;;;;4.35;3.22;;;;;;;23.09;49.73;101345.09;4920427;29;20352;-76
2021/07/20 11:47:36;;;;;;;3.83;3.28;;;;;;;23.19;47.79;101341.94;4920842;29;20216;-78